Time;durP1;ratioP1;P1;durP2;ratioP2;P2;SDS_P1;SDS_P2;PMS_P1;PMS_P2;Temp;Humidity;BMP_temperature;BMP_pressure;BME280_temperature;BME280_humidity;BME280_pressure;Samples;Min_cycle;Max_cycle;Signal;HPM_P1;HPM_P2
2023/05/31 00:01:49;;;;;;;3.77;2.10;;;10.70;1.00;11.80;94493.00;;;;7398494;19;20170;-75
2023/05/31 00:04:30;;;;;;;6.75;2.42;;;10.80;1.00;11.60;94513.00;;;;7397418;19;20147;-75
2023/05/31 00:06:57;;;;;;;5.07;2.20;;;10.70;1.00;11.60;94511.00;;;;7396730;19;20152;-75
2023/05/31 00:09:32;;;;;;;4.88;2.40;;;10.60;1.00;11.50;94495.00;;;;7398822;19;20577;-75
2023/05/31 00:12:06;;;;;;;5.07;2.00;;;10.50;1.00;11.40;94508.00;;;;7396135;19;20145;-75
2023/05/31 00:14:39;;;;;;;5.90;2.40;;;10.50;1.00;11.40;94509.00;;;;7398638;19;20513;-75
2023/05/31 00:17:16;;;;;;;5.00;2.17;;;10.40;1.00;11.40;94482.00;;;;7397288;19;20591;-76
2023/05/31 00:20:10;;;;;;;5.40;2.23;;;10.40;1.00;11.40;94492.00;;;;7395571;19;20129;-75
2023/05/31 00:22:43;;;;;;;5.20;2.00;;;10.30;1.00;11.50;94497.00;;;;7398109;19;20123;-75
2023/05/31 00:25:11;;;;;;;4.17;2.30;;;10.40;1.00;11.40;94505.00;;;;7393939;19;20161;-75
2023/05/31 00:27:44;;;;;;;4.22;2.28;;;10.40;1.00;11.40;94499.00;;;;7397735;19;20617;-75
2023/05/31 00:30:12;;;;;;;5.83;2.30;;;10.40;1.00;11.40;94508.00;;;;7396691;19;20133;-76
2023/05/31 00:32:46;;;;;;;5.27;2.30;;;10.30;1.00;11.30;94468.00;;;;7396717;19;20145;-75
2023/05/31 00:35:13;;;;;;;4.50;2.03;;;10.30;1.00;11.30;94500.00;;;;7395977;19;20212;-75
2023/05/31 00:37:47;;;;;;;3.35;2.10;;;10.30;1.00;11.40;94497.00;;;;7397020;19;20168;-75
2023/05/31 00:40:21;;;;;;;6.03;2.10;;;10.30;1.00;11.40;94497.00;;;;7391198;19;20140;-75
2023/05/31 00:42:55;;;;;;;4.70;2.20;;;10.30;1.00;11.40;94501.00;;;;7396953;19;20155;-75
2023/05/31 00:45:23;;;;;;;3.50;2.00;;;10.30;1.00;11.40;94507.00;;;;7394553;19;20129;-74
2023/05/31 00:47:58;;;;;;;5.53;2.23;;;10.30;1.00;11.40;94486.00;;;;7387617;19;21050;-74
2023/05/31 00:50:26;;;;;;;9.63;2.80;;;10.40;1.00;11.40;94506.00;;;;7396943;19;20136;-74
2023/05/31 00:53:03;;;;;;;2.50;1.73;;;10.40;1.00;11.40;94499.00;;;;7395362;19;20148;-74
2023/05/31 00:55:38;;;;;;;7.80;2.10;;;10.40;1.00;11.40;94502.00;;;;7397795;19;20176;-74
2023/05/31 00:58:11;;;;;;;7.27;2.60;;;10.40;1.00;11.40;94505.00;;;;7398470;19;20129;-74
2023/05/31 01:00:45;;;;;;;5.77;2.07;;;10.40;1.00;11.60;94500.00;;;;7394957;19;20144;-73
2023/05/31 01:03:20;;;;;;;6.90;2.00;;;10.50;1.00;11.50;94486.00;;;;7396964;19;20137;-73
2023/05/31 01:06:00;;;;;;;4.47;2.40;;;10.50;1.00;11.50;94497.00;;;;7396148;19;20189;-74
2023/05/31 01:08:35;;;;;;;2.60;1.90;;;10.50;1.00;11.40;94470.00;;;;7396931;19;20137;-73
2023/05/31 01:11:48;;;;;;;4.60;2.03;;;10.50;1.00;11.40;94495.00;;;;7396566;19;20120;-74
2023/05/31 01:14:41;;;;;;;11.50;2.23;;;10.50;1.00;11.30;94500.00;;;;7397209;19;20584;-73
2023/05/31 01:17:30;;;;;;;3.93;1.90;;;10.40;1.00;11.20;94499.00;;;;7394742;19;20169;-73
2023/05/31 01:20:09;;;;;;;2.88;1.60;;;10.30;1.00;11.00;94496.00;;;;7394928;19;20177;-72
2023/05/31 01:23:11;;;;;;;7.30;2.35;;;10.20;1.00;11.00;94500.00;;;;7398380;19;20138;-73
2023/05/31 01:26:17;;;;;;;7.23;1.97;;;10.10;1.00;11.00;94501.00;;;;7396604;19;20623;-73
2023/05/31 01:28:58;;;;;;;6.50;2.07;;;10.00;1.00;10.80;94492.00;;;;7395858;19;20132;-74
2023/05/31 01:31:36;;;;;;;5.13;2.30;;;10.00;1.00;10.70;94493.00;;;;7395325;19;20580;-74
2023/05/31 01:34:05;;;;;;;4.60;2.20;;;9.90;1.00;10.60;94487.00;;;;7394620;19;20150;-74
2023/05/31 01:36:39;;;;;;;4.57;2.10;;;9.80;1.00;10.40;94483.00;;;;7395676;19;20805;-74
2023/05/31 01:39:07;;;;;;;5.77;2.00;;;9.60;1.00;10.50;94483.00;;;;7401694;19;20170;-73
2023/05/31 01:41:45;;;;;;;7.30;2.40;;;9.50;1.00;10.60;94499.00;;;;7401832;19;20165;-74
2023/05/31 01:44:19;;;;;;;3.83;2.23;;;9.50;1.00;10.60;94497.00;;;;7403402;19;20158;-74
2023/05/31 01:46:54;;;;;;;5.73;2.37;;;9.50;1.00;10.70;94488.00;;;;7403160;19;20581;-73
2023/05/31 01:49:38;;;;;;;5.43;2.33;;;9.60;1.00;10.60;94505.00;;;;7402229;19;20140;-74
2023/05/31 01:52:15;;;;;;;7.43;2.20;;;9.50;1.00;10.40;94495.00;;;;7400786;19;20136;-73
2023/05/31 01:54:49;;;;;;;7.53;2.27;;;9.40;1.00;10.40;94493.00;;;;7403704;19;20903;-75
2023/05/31 01:57:26;;;;;;;3.73;1.93;;;9.40;1.00;10.40;94474.00;;;;7403182;19;20188;-73
2023/05/31 02:00:04;;;;;;;4.93;2.00;;;9.40;1.00;10.40;94507.00;;;;7403266;19;20138;-73
2023/05/31 02:02:42;;;;;;;5.63;2.20;;;9.40;1.00;10.30;94479.00;;;;7400138;19;20152;-73
2023/05/31 02:05:19;;;;;;;5.80;2.30;;;9.30;1.00;10.30;94508.00;;;;7399045;19;20280;-73
2023/05/31 02:08:00;;;;;;;5.67;2.00;;;9.30;1.00;10.20;94468.00;;;;7404328;19;20196;-73
2023/05/31 02:10:34;;;;;;;4.83;2.63;;;9.30;1.00;10.30;94500.00;;;;7401991;19;20129;-73
2023/05/31 02:13:07;;;;;;;5.20;2.27;;;9.20;1.00;10.10;94493.00;;;;7402148;19;20160;-73
2023/05/31 02:15:41;;;;;;;4.47;1.83;;;9.10;1.00;10.20;94489.00;;;;7404545;19;20135;-73
2023/05/31 02:18:18;;;;;;;3.83;1.70;;;9.10;5.10;10.30;94498.00;;;;7403004;19;20132;-73
2023/05/31 02:20:52;;;;;;;4.70;1.97;;;9.20;8.70;10.20;94495.00;;;;7402634;19;20173;-73
2023/05/31 02:23:20;;;;;;;3.37;1.80;;;9.20;9.90;10.30;94486.00;;;;7401746;19;20142;-73
2023/05/31 02:25:55;;;;;;;3.70;2.00;;;9.20;22.50;10.20;94490.00;;;;7401233;19;20145;-73
2023/05/31 02:28:28;;;;;;;8.13;1.90;;;9.20;18.50;10.30;94495.00;;;;7399954;19;20173;-73
2023/05/31 02:31:02;;;;;;;5.63;2.37;;;9.20;9.10;10.30;94496.00;;;;7401772;19;20145;-73
2023/05/31 02:33:36;;;;;;;4.20;2.10;;;9.20;1.00;10.30;94476.00;;;;7398645;19;20490;-74
2023/05/31 02:36:11;;;;;;;8.17;2.23;;;9.30;1.00;10.30;94483.00;;;;7401446;19;20125;-74
2023/05/31 02:38:44;;;;;;;4.70;1.80;;;9.30;1.00;10.50;94462.00;;;;7402545;19;20144;-73
2023/05/31 02:41:18;;;;;;;6.77;2.30;;;9.30;1.00;10.60;94476.00;;;;7401299;19;20188;-74
2023/05/31 02:43:52;;;;;;;4.83;2.17;;;9.40;1.00;10.60;94483.00;;;;7400237;19;20143;-73
2023/05/31 02:46:26;;;;;;;5.33;2.10;;;9.50;1.00;10.50;94477.00;;;;7400007;19;20148;-73
2023/05/31 02:49:00;;;;;;;4.23;1.90;;;9.60;1.00;10.50;94456.00;;;;7399730;19;20129;-74
2023/05/31 02:51:35;;;;;;;6.27;2.10;;;9.50;1.00;10.60;94474.00;;;;7400513;19;20141;-74
2023/05/31 02:54:08;;;;;;;4.33;2.00;;;9.60;1.00;10.70;94474.00;;;;7396296;19;20141;-74
2023/05/31 02:56:42;;;;;;;4.70;2.40;;;9.60;1.00;10.50;94450.00;;;;7399979;19;20129;-73
2023/05/31 02:59:09;;;;;;;4.47;2.23;;;9.60;1.00;10.40;94476.00;;;;7399622;19;20592;-73
2023/05/31 03:01:43;;;;;;;5.83;2.20;;;9.60;1.00;10.40;94476.00;;;;7397634;19;20193;-74
2023/05/31 03:04:17;;;;;;;5.63;2.67;;;9.50;1.00;10.20;94483.00;;;;7401169;19;20145;-73
2023/05/31 03:06:58;;;;;;;6.93;2.20;;;9.40;1.00;10.30;94485.00;;;;7401458;19;20137;-73
2023/05/31 03:09:31;;;;;;;3.13;1.90;;;9.40;1.00;10.40;94486.00;;;;7400963;19;20472;-75
2023/05/31 03:12:06;;;;;;;6.77;2.30;;;9.40;1.00;10.30;94467.00;;;;7402178;19;20201;-74
2023/05/31 03:14:40;;;;;;;2.90;2.00;;;9.40;1.00;10.30;94483.00;;;;7401761;19;20583;-73
2023/05/31 03:17:07;;;;;;;5.40;2.40;;;9.40;1.00;10.30;94467.00;;;;7399999;19;20472;-74
2023/05/31 03:19:42;;;;;;;3.67;1.97;;;9.40;1.00;10.20;94481.00;;;;7399342;19;20121;-74
2023/05/31 03:22:16;;;;;;;5.37;2.60;;;9.30;1.00;10.30;94484.00;;;;7398418;19;20468;-73
2023/05/31 03:24:50;;;;;;;6.60;2.80;;;9.30;1.00;10.30;94492.00;;;;7399514;19;20121;-74
2023/05/31 03:27:24;;;;;;;3.80;1.93;;;9.30;1.00;10.30;94475.00;;;;7400243;19;20584;-74
2023/05/31 03:29:51;;;;;;;4.17;2.00;;;9.30;1.00;10.20;94496.00;;;;7398682;19;20136;-73
2023/05/31 03:32:24;;;;;;;5.17;2.50;;;9.20;1.00;10.20;94482.00;;;;7400445;19;20137;-74
2023/05/31 03:35:01;;;;;;;4.97;2.60;;;9.20;1.00;10.10;94495.00;;;;7399121;19;20119;-73
2023/05/31 03:37:34;;;;;;;3.97;2.20;;;9.20;1.00;10.20;94495.00;;;;7400158;19;20124;-74
2023/05/31 03:40:09;;;;;;;5.07;2.00;;;9.20;1.00;10.20;94476.00;;;;7397746;19;20147;-74
2023/05/31 03:42:43;;;;;;;6.17;2.30;;;9.20;1.00;10.10;94480.00;;;;7399679;19;20503;-73
2023/05/31 03:45:10;;;;;;;3.93;2.00;;;9.20;1.00;10.20;94470.00;;;;7399683;19;20576;-73
2023/05/31 03:47:44;;;;;;;5.40;2.07;;;9.20;1.00;10.10;94496.00;;;;7401465;19;20195;-72
2023/05/31 03:50:12;;;;;;;4.93;2.00;;;9.20;1.00;10.10;94494.00;;;;7398986;19;20196;-74
2023/05/31 03:52:45;;;;;;;6.30;1.93;;;9.10;1.00;10.10;94493.00;;;;7398947;19;20145;-73
2023/05/31 03:55:20;;;;;;;9.63;2.37;;;9.10;1.00;10.30;94464.00;;;;7400220;19;20129;-73
2023/05/31 03:57:53;;;;;;;3.83;2.13;;;9.20;1.00;10.30;94495.00;;;;7398246;19;20159;-74
2023/05/31 04:00:27;;;;;;;7.90;2.40;;;9.20;1.00;10.30;94468.00;;;;7398674;19;20139;-73
2023/05/31 04:03:02;;;;;;;3.93;2.20;;;9.20;1.00;10.30;94493.00;;;;7398404;19;20501;-74
2023/05/31 04:05:43;;;;;;;6.13;1.93;;;9.20;1.00;10.30;94492.00;;;;7396592;19;20140;-74
2023/05/31 04:08:24;;;;;;;5.57;2.37;;;9.30;1.00;10.30;94501.00;;;;7395956;19;20128;-73
2023/05/31 04:10:57;;;;;;;5.03;2.20;;;9.30;1.00;10.30;94495.00;;;;7396762;19;20121;-73
2023/05/31 04:13:25;;;;;;;3.83;2.00;;;9.30;1.00;10.30;94501.00;;;;7398928;19;20569;-73
2023/05/31 04:15:58;;;;;;;4.93;2.40;;;9.30;1.00;10.30;94490.00;;;;7396946;19;20141;-74
2023/05/31 04:18:32;;;;;;;7.67;2.03;;;9.20;1.00;10.40;94502.00;;;;7397762;19;20120;-73
2023/05/31 04:21:07;;;;;;;4.13;2.13;;;9.30;1.00;10.40;94488.00;;;;7397227;19;20148;-73
2023/05/31 04:23:36;;;;;;;3.73;2.00;;;9.30;1.00;10.40;94509.00;;;;7396663;19;20166;-73
2023/05/31 04:26:04;;;;;;;3.40;2.07;;;9.30;1.00;10.40;94499.00;;;;7397591;19;20149;-74
2023/05/31 04:28:39;;;;;;;4.53;2.57;;;9.40;1.00;10.50;94494.00;;;;7397233;19;20125;-74
2023/05/31 04:31:06;;;;;;;4.03;1.93;;;9.40;1.00;10.80;94504.00;;;;7394088;19;20149;-70
2023/05/31 04:33:42;;;;;;;4.23;1.60;;;9.50;1.00;10.70;94504.00;;;;7397224;19;20125;-70
2023/05/31 04:36:09;;;;;;;3.57;2.10;;;9.60;1.00;10.90;94488.00;;;;7398678;19;20619;-69
2023/05/31 04:38:43;;;;;;;3.47;2.03;;;9.70;1.00;10.90;94501.00;;;;7398886;19;20132;-70
2023/05/31 04:41:17;;;;;;;3.87;2.13;;;9.80;1.00;11.00;94509.00;;;;7397126;19;20684;-70
2023/05/31 04:43:53;;;;;;;3.30;2.20;;;9.90;1.00;11.20;94497.00;;;;7398088;19;20132;-69
2023/05/31 04:46:26;;;;;;;5.27;2.30;;;10.00;1.00;11.30;94497.00;;;;7384994;19;20495;-70
2023/05/31 04:48:55;;;;;;;3.17;1.83;;;10.10;1.00;11.40;94495.00;;;;7369186;19;23363;-71
2023/05/31 04:51:28;;;;;;;3.70;1.95;;;10.20;1.00;11.10;94475.00;;;;7375273;19;20144;-70
2023/05/31 04:53:56;;;;;;;3.23;2.03;;;10.30;1.00;11.50;94500.00;;;;7369555;19;23199;-71
2023/05/31 04:56:29;;;;;;;4.03;1.90;;;10.40;1.00;11.50;94494.00;;;;7375217;19;20464;-70
2023/05/31 04:58:56;;;;;;;4.60;1.90;;;10.50;1.00;11.70;94507.00;;;;7373395;19;20170;-77
2023/05/31 05:01:31;;;;;;;3.53;2.10;;;10.60;1.00;11.70;94501.00;;;;7373191;19;20193;-74
2023/05/31 05:03:58;;;;;;;5.17;2.23;;;10.60;1.00;11.90;94492.00;;;;7373959;19;20545;-71
2023/05/31 05:06:41;;;;;;;7.43;1.90;;;10.70;1.00;12.00;94473.00;;;;7375799;19;20232;-71
2023/05/31 05:09:09;;;;;;;4.18;2.20;;;10.80;1.00;12.10;94503.00;;;;7375709;19;20584;-70
2023/05/31 05:11:42;;;;;;;4.87;2.03;;;10.90;1.00;12.20;94507.00;;;;7375266;19;20149;-70
2023/05/31 05:14:14;;;;;;;4.95;2.45;;;11.00;1.00;12.30;94492.00;;;;7382392;19;20133;-70
2023/05/31 05:16:55;;;;;;;6.40;2.20;;;11.20;1.00;12.40;94497.00;;;;7382177;19;20508;-70
2023/05/31 05:19:30;;;;;;;6.95;2.22;;;11.30;1.00;12.50;94478.00;;;;7382485;19;21844;-70
2023/05/31 05:21:57;;;;;;;8.93;2.35;;;11.40;1.00;12.60;94495.00;;;;7381487;19;20166;-70
2023/05/31 05:24:26;;;;;;;2.72;2.05;;;11.50;1.00;12.70;94471.00;;;;7382367;19;20131;-70
2023/05/31 05:27:00;;;;;;;7.70;2.17;;;11.60;1.00;12.90;94493.00;;;;7382252;19;20231;-70
2023/05/31 05:29:27;;;;;;;6.40;2.00;;;11.70;1.00;13.00;94512.00;;;;7380241;19;20125;-70
2023/05/31 05:32:01;;;;;;;6.30;1.98;;;11.80;1.00;13.00;94516.00;;;;7379328;19;20698;-71
2023/05/31 05:34:29;;;;;;;5.80;2.05;;;11.90;1.00;13.10;94498.00;;;;7382231;19;20121;-71
2023/05/31 05:37:09;;;;;;;6.53;2.03;;;11.90;1.00;13.30;94495.00;;;;7379731;19;20515;-71
2023/05/31 05:39:36;;;;;;;2.97;1.85;;;12.00;1.00;13.20;94505.00;;;;7381356;19;20129;-70
2023/05/31 05:42:11;;;;;;;3.78;2.17;;;12.10;1.00;13.30;94508.00;;;;7379769;19;20222;-70
2023/05/31 05:44:39;;;;;;;3.28;2.03;;;12.20;1.00;13.50;94506.00;;;;7381092;19;21870;-70
2023/05/31 05:47:13;;;;;;;7.57;2.28;;;12.20;1.00;13.50;94495.00;;;;7381080;19;20153;-70
2023/05/31 05:49:48;;;;;;;4.80;2.58;;;12.30;1.00;13.60;94504.00;;;;7380845;19;20146;-70
2023/05/31 05:52:22;;;;;;;3.95;2.20;;;12.40;1.00;13.80;94480.00;;;;7380929;19;20483;-71
2023/05/31 05:54:56;;;;;;;4.13;2.17;;;12.50;1.00;14.20;94514.00;;;;7380836;19;20149;-71
2023/05/31 05:57:30;;;;;;;8.63;2.08;;;12.70;1.00;14.40;94502.00;;;;7379342;19;20610;-70
2023/05/31 05:59:57;;;;;;;7.60;2.55;;;12.90;1.00;14.70;94490.00;;;;7382734;19;20245;-75
2023/05/31 06:02:30;;;;;;;3.72;1.90;;;13.20;1.00;14.70;94510.00;;;;7377289;19;20183;-71
2023/05/31 06:05:05;;;;;;;3.88;2.25;;;13.40;1.00;15.30;94506.00;;;;7375236;19;21084;-72
2023/05/31 06:07:47;;;;;;;8.60;2.40;;;13.80;1.00;15.30;94500.00;;;;7378988;19;20201;-73
2023/05/31 06:10:14;;;;;;;5.68;2.22;;;14.00;1.00;15.60;94488.00;;;;7376163;19;20620;-72
2023/05/31 06:12:47;;;;;;;4.45;2.30;;;14.20;1.00;15.60;94509.00;;;;7381305;19;20142;-72
2023/05/31 06:15:22;;;;;;;3.20;2.35;;;14.40;1.00;15.50;94507.00;;;;7373561;19;20572;-73
2023/05/31 06:17:55;;;;;;;4.15;2.33;;;14.50;1.00;15.70;94503.00;;;;7380171;19;20137;-71
2023/05/31 06:20:29;;;;;;;5.32;2.00;;;14.60;1.00;16.40;94502.00;;;;7375991;19;20497;-73
2023/05/31 06:22:57;;;;;;;4.22;2.35;;;14.80;1.00;16.80;94509.00;;;;7375653;19;20132;-71
2023/05/31 06:25:31;;;;;;;7.75;2.22;;;15.00;1.00;17.30;94491.00;;;;7377569;19;20132;-72
2023/05/31 06:27:58;;;;;;;6.50;2.25;;;15.20;1.00;17.40;94484.00;;;;7377346;19;20466;-72
2023/05/31 06:30:31;;;;;;;5.72;2.30;;;15.30;1.00;17.40;94473.00;;;;7376584;19;20125;-76
2023/05/31 06:33:00;;;;;;;4.88;2.00;;;;;17.40;94506.00;;;;7368509;19;20500;-75
2023/05/31 06:35:34;;;;;;;3.15;1.95;;;15.10;1.00;17.60;94513.00;;;;7376777;19;20151;-73
2023/05/31 06:38:14;;;;;;;5.80;2.50;;;;;17.70;94506.00;;;;7375472;19;20177;-72
2023/05/31 06:40:49;;;;;;;4.53;2.53;;;15.50;1.00;18.30;94506.00;;;;7377344;19;20153;-72
2023/05/31 06:43:16;;;;;;;4.20;2.33;;;15.60;99.90;18.70;94494.00;;;;7377937;19;20457;-72
2023/05/31 06:45:50;;;;;;;5.93;2.38;;;15.70;1.00;18.50;94499.00;;;;7376951;19;20140;-72
2023/05/31 06:48:24;;;;;;;9.45;2.30;;;15.80;1.00;19.00;94502.00;;;;7376203;19;20124;-72
2023/05/31 06:50:59;;;;;;;4.70;2.60;;;15.80;1.00;18.60;94502.00;;;;7377153;19;20132;-73
2023/05/31 06:53:32;;;;;;;6.68;2.22;;;16.00;1.00;18.50;94503.00;;;;7376464;19;20576;-72
2023/05/31 06:56:06;;;;;;;6.57;2.20;;;16.10;1.00;18.30;94498.00;;;;7375829;19;20163;-71
2023/05/31 06:58:34;;;;;;;5.55;2.30;;;16.10;1.00;18.10;94496.00;;;;7376962;19;20133;-71
2023/05/31 07:01:08;;;;;;;3.95;2.30;;;16.20;1.00;18.40;94468.00;;;;7378256;19;20159;-72
2023/05/31 07:03:35;;;;;;;6.80;2.25;;;16.10;1.00;18.30;94476.00;;;;7371439;19;20152;-72
2023/05/31 07:06:15;;;;;;;6.88;2.45;;;16.20;1.00;18.30;94499.00;;;;7377577;19;20163;-71
2023/05/31 07:08:49;;;;;;;7.90;2.80;;;16.20;1.00;18.20;94491.00;;;;7371388;19;20631;-72
2023/05/31 07:11:32;;;;;;;5.68;2.80;;;16.20;1.00;18.10;94481.00;;;;7369883;19;20220;-70
2023/05/31 07:14:13;;;;;;;5.13;2.28;;;16.30;1.00;18.20;94501.00;;;;7371698;19;20133;-71
2023/05/31 07:16:46;;;;;;;5.20;2.40;;;16.30;1.00;18.40;94500.00;;;;7376085;19;20177;-71
2023/05/31 07:19:14;;;;;;;3.50;2.05;;;16.40;1.00;18.30;94495.00;;;;7375006;19;20624;-71
2023/05/31 07:21:47;;;;;;;7.75;3.00;;;16.40;1.00;18.30;94505.00;;;;7371652;19;20157;-71
2023/05/31 07:24:21;;;;;;;5.30;2.38;;;16.50;1.00;18.60;94504.00;;;;7373338;19;20149;-71
2023/05/31 07:26:48;;;;;;;10.02;2.65;;;16.60;1.00;18.30;94512.00;;;;7371665;19;20632;-73
2023/05/31 07:29:22;;;;;;;5.97;2.65;;;16.70;1.00;18.20;94497.00;;;;7373866;19;20177;-72
2023/05/31 07:31:50;;;;;;;6.20;3.00;;;16.60;1.00;18.20;94499.00;;;;7372353;19;20135;-71
2023/05/31 07:34:17;;;;;;;7.22;2.58;;;16.60;1.00;18.70;94511.00;;;;7373964;19;20151;-72
2023/05/31 07:36:50;;;;;;;5.63;2.53;;;16.70;1.00;18.70;94508.00;;;;7374491;19;20128;-71
2023/05/31 07:39:20;;;;;;;11.27;3.47;;;16.80;1.00;18.60;94504.00;;;;7370184;19;20135;-72
2023/05/31 07:41:54;;;;;;;7.13;2.53;;;16.80;1.00;18.40;94511.00;;;;7372590;19;20148;-71
2023/05/31 07:44:24;;;;;;;6.45;2.53;;;16.80;1.00;18.70;94502.00;;;;7369720;19;20477;-70
2023/05/31 07:46:59;;;;;;;8.75;2.85;;;16.90;1.00;18.80;94505.00;;;;7374134;19;20144;-70
2023/05/31 07:49:27;;;;;;;6.10;2.67;;;17.00;1.00;18.50;94510.00;;;;7376049;19;20454;-70
2023/05/31 07:52:01;;;;;;;9.45;2.95;;;17.10;1.00;19.10;94478.00;;;;7372727;19;20140;-71
2023/05/31 07:54:28;;;;;;;12.55;3.33;;;17.30;1.00;19.00;94471.00;;;;7371846;19;20153;-71
2023/05/31 07:57:03;;;;;;;5.28;2.80;;;17.40;1.00;19.00;94506.00;;;;7373687;19;20616;-71
2023/05/31 07:59:31;;;;;;;10.30;2.90;;;17.30;1.00;19.30;94493.00;;;;7373629;19;20612;-71
2023/05/31 08:02:05;;;;;;;7.22;2.80;;;17.40;1.00;19.50;94494.00;;;;7375055;19;20149;-73
2023/05/31 08:04:46;;;;;;;6.22;3.20;;;17.60;1.00;19.70;94490.00;;;;7371035;19;20156;-71
2023/05/31 08:07:27;;;;;;;4.80;3.10;;;17.70;1.00;20.00;94495.00;;;;7373138;19;21091;-71
2023/05/31 08:10:02;;;;;;;4.78;2.75;;;17.90;1.00;20.10;94487.00;;;;7374878;19;20129;-71
2023/05/31 08:12:37;;;;;;;11.55;3.05;;;18.00;1.00;20.00;94463.00;;;;7373862;19;20153;-72
2023/05/31 08:15:11;;;;;;;6.10;2.30;;;18.10;1.00;20.10;94466.00;;;;7373918;19;20184;-72
2023/05/31 08:17:46;;;;;;;6.85;2.65;;;18.30;1.00;20.10;94486.00;;;;7376762;19;20137;-72
2023/05/31 08:20:16;;;;;;;7.95;2.42;;;18.20;1.00;20.40;94493.00;;;;7373874;19;21437;-72
2023/05/31 08:22:50;;;;;;;8.88;2.97;;;18.20;1.00;20.30;94496.00;;;;7373817;19;21690;-73
2023/05/31 08:25:18;;;;;;;5.38;2.50;;;18.40;1.00;20.50;94457.00;;;;7372595;19;20166;-73
2023/05/31 08:27:51;;;;;;;7.57;2.80;;;18.50;1.00;20.80;94491.00;;;;7372179;19;20579;-69
2023/05/31 08:30:25;;;;;;;5.60;2.90;;;18.60;1.00;20.80;94485.00;;;;7372653;19;20171;-74
2023/05/31 08:33:00;;;;;;;4.38;2.58;;;18.80;1.00;20.80;94486.00;;;;7372167;19;20141;-70
2023/05/31 08:35:27;;;;;;;9.90;2.95;;;18.90;1.00;21.00;94491.00;;;;7369469;19;20151;-70
2023/05/31 08:38:01;;;;;;;6.63;2.60;;;19.10;1.00;21.40;94479.00;;;;7370988;19;20157;-71
2023/05/31 08:40:35;;;;;;;6.20;2.78;;;19.30;1.00;21.80;94482.00;;;;7376276;19;20133;-70
2023/05/31 08:43:15;;;;;;;11.43;3.10;;;19.40;1.00;21.90;94483.00;;;;7370710;19;20147;-71
2023/05/31 08:45:43;;;;;;;10.98;3.33;;;19.70;1.00;22.20;94480.00;;;;7372983;19;20495;-71
2023/05/31 08:48:26;;;;;;;7.03;2.70;;;;;22.90;94484.00;;;;7371430;19;20195;-70
2023/05/31 08:50:57;;;;;;;6.18;2.85;;;20.10;1.00;22.90;94476.00;;;;7373775;19;20151;-70
2023/05/31 08:53:34;;;;;;;5.20;2.78;;;20.30;1.00;23.10;94478.00;;;;7371691;19;20191;-70
2023/05/31 08:56:08;;;;;;;4.32;2.75;;;20.30;1.00;23.50;94478.00;;;;7368002;19;20154;-70
2023/05/31 08:58:42;;;;;;;6.97;3.05;;;20.40;1.00;23.90;94481.00;;;;7374328;19;20142;-70
2023/05/31 09:01:11;;;;;;;6.90;2.78;;;20.60;1.00;24.00;94470.00;;;;7366507;19;20181;-70
2023/05/31 09:03:45;;;;;;;6.55;2.70;;;20.60;1.00;24.00;94470.00;;;;7358856;19;20472;-73
2023/05/31 09:06:19;;;;;;;9.43;3.22;;;20.80;1.00;23.70;94462.00;;;;7372140;19;20640;-71
2023/05/31 09:09:01;;;;;;;5.53;3.30;;;20.80;99.90;23.50;94481.00;;;;7369378;19;20606;-76
2023/05/31 09:11:29;;;;;;;6.82;3.15;;;20.90;99.90;23.90;94457.00;;;;7368717;19;20125;-72
2023/05/31 09:14:03;;;;;;;8.65;2.95;;;20.90;99.90;23.70;94457.00;;;;7368114;19;20438;-70
2023/05/31 09:16:38;;;;;;;11.82;3.70;;;21.10;99.90;24.60;94439.00;;;;7369700;19;20705;-71
2023/05/31 09:19:12;;;;;;;5.30;2.97;;;21.40;1.40;24.60;94469.00;;;;7371776;19;20129;-72
2023/05/31 09:21:42;;;;;;;5.30;3.05;;;21.30;99.90;24.20;94476.00;;;;7369671;19;20121;-71
2023/05/31 09:24:19;;;;;;;6.75;2.88;;;21.40;99.90;23.90;94474.00;;;;7368291;19;20137;-73
2023/05/31 09:26:51;;;;;;;6.60;2.83;;;21.60;99.90;24.30;94466.00;;;;7371580;19;20133;-74
2023/05/31 09:29:26;;;;;;;5.80;3.35;;;21.60;99.90;25.10;94476.00;;;;7370892;19;20174;-73
2023/05/31 09:32:09;;;;;;;6.13;3.05;;;21.70;99.90;24.80;94485.00;;;;7369661;19;20133;-75
2023/05/31 09:34:44;;;;;;;11.55;3.05;;;21.90;99.90;24.10;94471.00;;;;7367031;19;20145;-73
2023/05/31 09:37:23;;;;;;;8.43;3.10;;;21.80;99.90;23.90;94486.00;;;;7369488;19;20141;-79
2023/05/31 09:39:57;;;;;;;5.95;3.28;;;21.50;99.90;23.30;94479.00;;;;7369979;19;21078;-75
2023/05/31 09:42:29;;;;;;;7.72;2.78;;;21.20;99.90;23.50;94483.00;;;;7370490;19;20641;-74
2023/05/31 09:45:04;;;;;;;10.35;3.20;;;21.20;99.90;23.40;94475.00;;;;7370721;19;20148;-74
2023/05/31 09:47:31;;;;;;;4.82;2.40;;;21.40;99.90;23.60;94446.00;;;;7371346;19;20133;-75
2023/05/31 09:50:01;;;;;;;8.40;2.78;;;21.40;99.90;24.00;94432.00;;;;7372112;19;20136;-77
2023/05/31 09:52:38;;;;;;;10.77;3.20;;;21.70;99.90;24.20;94458.00;;;;7373442;19;20188;-75
2023/05/31 09:55:07;;;;;;;6.10;2.90;;;21.80;99.90;24.10;94462.00;;;;7373547;19;20782;-76
2023/05/31 09:57:45;;;;;;;8.68;2.97;;;21.90;99.90;24.00;94446.00;;;;7374896;19;20137;-73
2023/05/31 10:00:17;;;;;;;8.13;3.05;;;21.90;99.90;24.00;94439.00;;;;7376577;19;20168;-73
2023/05/31 10:02:54;;;;;;;4.75;2.70;;;22.10;99.90;24.50;94463.00;;;;7373405;19;20156;-73
2023/05/31 10:05:21;;;;;;;9.40;2.78;;;22.30;99.90;24.80;94437.00;;;;7376932;19;20546;-73
2023/05/31 10:08:03;;;;;;;5.63;2.60;;;22.40;99.90;24.70;94449.00;;;;7376310;19;20472;-74
2023/05/31 10:10:37;;;;;;;6.18;2.65;;;22.40;99.90;24.90;94461.00;;;;7379207;19;20147;-72
2023/05/31 10:13:14;;;;;;;6.63;2.83;;;22.40;99.90;24.70;94459.00;;;;7375972;19;20148;-77
2023/05/31 10:15:46;;;;;;;6.97;2.67;;;22.40;99.90;24.90;94473.00;;;;7376502;19;20152;-73
2023/05/31 10:18:23;;;;;;;7.38;2.90;;;22.60;99.90;24.90;94451.00;;;;7374227;19;20182;-73
2023/05/31 10:21:24;;;;;;;8.60;2.88;;;22.80;99.90;25.00;94467.00;;;;7379064;19;20129;-72
2023/05/31 10:24:11;;;;;;;4.68;2.97;;;23.00;99.90;24.50;94467.00;;;;7377706;19;20193;-70
2023/05/31 10:27:11;;;;;;;7.05;3.10;;;23.10;99.90;24.30;94471.00;;;;7373461;19;20137;-74
2023/05/31 10:29:56;;;;;;;6.70;3.00;;;23.00;99.90;25.00;94468.00;;;;7376994;19;20773;-76
2023/05/31 10:32:26;;;;;;;7.97;2.92;;;23.30;99.90;25.60;94427.00;;;;7375370;19;20145;-74
2023/05/31 10:35:08;;;;;;;5.07;2.90;;;23.60;99.90;25.80;94458.00;;;;7377713;19;21991;-74
2023/05/31 10:37:45;;;;;;;7.60;2.50;;;24.10;99.90;25.80;94444.00;;;;7374442;19;20121;-81
2023/05/31 10:41:02;;;;;;;7.70;2.78;;;24.10;99.90;26.10;94427.00;;;;7375091;19;20135;-78
2023/05/31 10:43:43;;;;;;;4.85;2.53;;;24.30;99.90;26.60;94456.00;;;;7376710;19;20622;-76
2023/05/31 10:46:30;;;;;;;12.07;2.88;;;24.30;99.90;26.50;94440.00;;;;7377856;19;20159;-77
2023/05/31 10:48:59;;;;;;;5.70;2.60;;;24.60;99.90;26.90;94426.00;;;;7376323;19;20612;-76
2023/05/31 10:51:46;;;;;;;4.75;2.72;;;25.00;99.90;27.20;94448.00;;;;7376517;19;20129;-73
2023/05/31 10:54:25;;;;;;;6.03;2.72;;;25.40;99.90;27.10;94459.00;;;;7377789;19;20687;-80
2023/05/31 10:57:04;;;;;;;5.70;2.78;;;25.50;99.90;26.80;94453.00;;;;7378851;19;20521;-80
2023/05/31 10:59:47;;;;;;;8.48;2.67;;;25.50;99.90;27.30;94453.00;;;;7376671;19;20485;-79
2023/05/31 11:02:22;;;;;;;6.35;2.75;;;25.70;99.90;27.40;94417.00;;;;7375274;19;20655;-77
2023/05/31 11:05:20;;;;;;;8.45;2.78;;;25.60;99.90;26.90;94453.00;;;;7372343;19;20501;-76
2023/05/31 11:08:04;;;;;;;5.00;2.80;;;25.20;99.90;26.80;94444.00;;;;7373267;19;20154;-76
2023/05/31 11:10:38;;;;;;;5.07;3.03;;;25.50;99.90;27.00;94437.00;;;;7373323;19;20133;-80
2023/05/31 11:13:07;;;;;;;6.70;2.53;;;25.70;99.90;26.60;94407.00;;;;7376470;19;20133;-79
2023/05/31 11:15:44;;;;;;;6.53;2.50;;;25.70;99.90;26.80;94450.00;;;;7373812;19;20129;-75
2023/05/31 11:18:27;;;;;;;6.70;3.10;;;25.60;99.90;27.00;94429.00;;;;7373153;19;20176;-76
2023/05/31 11:21:04;;;;;;;9.10;2.67;;;25.40;99.90;27.00;94438.00;;;;7375903;19;20589;-80
2023/05/31 11:23:34;;;;;;;9.38;2.47;;;25.50;99.90;27.20;94414.00;;;;7369728;19;20489;-77
2023/05/31 11:26:16;;;;;;;5.28;2.60;;;25.80;99.90;26.60;94421.00;;;;7372837;19;20146;-77
2023/05/31 11:29:01;;;;;;;6.07;2.60;;;25.50;99.90;27.00;94421.00;;;;7375646;19;20576;-76
2023/05/31 11:31:58;;;;;;;7.10;2.42;;;25.90;99.90;27.40;94432.00;;;;7374214;19;20136;-77
2023/05/31 11:34:33;;;;;;;5.47;2.67;;;26.20;99.90;27.10;94403.00;;;;7374310;19;20528;-74
2023/05/31 11:37:08;;;;;;;4.30;2.60;;;26.50;99.90;27.20;94424.00;;;;7375805;19;20152;-75